Time;durP1;ratioP1;P1;durP2;ratioP2;P2;SDS_P1;SDS_P2;PMS_P1;PMS_P2;Temp;Humidity;BMP_temperature;BMP_pressure;BME280_temperature;BME280_humidity;BME280_pressure;Samples;Min_cycle;Max_cycle;Signal;HPM_P1;HPM_P2
2022/07/14 00:00:02;;;;;;;17.52;4.85;;;;;;;;;;5070704;28;20106;-74
2022/07/14 00:02:28;;;;;;;20.63;4.95;;;;;;;;;;5067658;28;20387;-76
2022/07/14 00:04:54;;;;;;;;;;;;;;;;;;5069844;28;20140;-72
2022/07/14 00:07:20;;;;;;;19.00;5.10;;;;;;;;;;5071442;28;19963;-72
2022/07/14 00:09:46;;;;;;;19.00;4.97;;;;;;;;;;5068116;28;20434;-72
2022/07/14 00:12:12;;;;;;;18.35;4.88;;;;;;;;;;5085326;28;20181;-72
2022/07/14 00:14:38;;;;;;;16.83;5.43;;;;;;;;;;5075947;28;20521;-73
2022/07/14 00:17:04;;;;;;;19.40;5.20;;;;;;;;;;5084032;28;20126;-72
2022/07/14 00:19:30;;;;;;;19.88;5.43;;;;;;;;;;5089283;28;20066;-77
2022/07/14 00:21:57;;;;;;;18.65;5.65;;;;;;;;;;5073485;28;20044;-72
2022/07/14 00:24:23;;;;;;;17.52;4.65;;;;;;;;;;5068365;28;20123;-72
2022/07/14 00:26:49;;;;;;;;;;;;;;;;;;5079964;28;20076;-72
2022/07/14 00:29:15;;;;;;;17.48;5.53;;;;;;;;;;5088987;28;20415;-73
2022/07/14 00:31:41;;;;;;;22.55;5.20;;;;;;;;;;5082643;28;20128;-73
2022/07/14 00:34:07;;;;;;;18.38;5.45;;;;;;;;;;5080183;28;20048;-72
2022/07/14 00:36:33;;;;;;;18.38;5.60;;;;;;;;;;5080468;28;20415;-78
2022/07/14 00:38:59;;;;;;;18.48;5.38;;;;;;;;;;5067879;28;20052;-72
2022/07/14 00:41:25;;;;;;;23.30;6.05;;;;;;;;;;5080374;28;20047;-75
2022/07/14 00:43:51;;;;;;;21.92;5.80;;;;;;;;;;5087588;28;20048;-73
2022/07/14 00:46:17;;;;;;;18.25;5.80;;;;;;;;;;5083049;28;20166;-72
2022/07/14 00:48:43;;;;;;;18.00;5.82;;;;;;;;;;5067433;28;20402;-72
2022/07/14 00:51:09;;;;;;;19.52;6.25;;;;;;;;;;5075966;28;20376;-72
2022/07/14 00:53:35;;;;;;;32.80;5.82;;;;;;;;;;5083058;28;20547;-78
2022/07/14 00:56:01;;;;;;;17.27;5.28;;;;;;;;;;5088085;28;20044;-72
2022/07/14 00:58:28;;;;;;;20.80;6.07;;;;;;;;;;5089331;28;20047;-72
2022/07/14 01:00:54;;;;;;;18.33;5.72;;;;;;;;;;5079600;28;20070;-72
2022/07/14 01:03:20;;;;;;;17.83;5.68;;;;;;;;;;5080911;28;20055;-73
2022/07/14 01:05:46;;;;;;;;;;;;;;;;;;5089543;28;20103;-72
2022/07/14 01:08:12;;;;;;;19.83;5.28;;;;;;;;;;5070792;28;19993;-72
2022/07/14 01:10:38;;;;;;;19.98;5.15;;;;;;;;;;5067217;28;20068;-77
2022/07/14 01:13:06;;;;;;;15.05;5.30;;;;;;;;;;5078123;28;20453;-74
2022/07/14 01:15:32;;;;;;;21.92;5.80;;;;;;;;;;5068918;28;20401;-72
2022/07/14 01:17:58;;;;;;;;;;;;;;;;;;5082138;28;20048;-73
2022/07/14 01:20:24;;;;;;;24.05;5.85;;;;;;;;;;5086979;28;19927;-73
2022/07/14 01:22:51;;;;;;;23.73;6.05;;;;;;;;;;5079279;28;20201;-73
2022/07/14 01:25:18;;;;;;;17.30;4.97;;;;;;;;;;5070978;28;20053;-72
2022/07/14 01:27:44;;;;;;;18.77;5.60;;;;;;;;;;5066670;28;20066;-73
2022/07/14 01:30:11;;;;;;;20.55;5.95;;;;;;;;;;5068786;28;20052;-73
2022/07/14 01:32:37;;;;;;;18.13;6.28;;;;;;;;;;5075579;28;20110;-73
2022/07/14 01:35:04;;;;;;;20.75;5.40;;;;;;;;;;5087834;28;20486;-73
2022/07/14 01:37:30;;;;;;;17.98;5.05;;;;;;;;;;5081804;28;20139;-73
2022/07/14 01:39:56;;;;;;;18.77;5.38;;;;;;;;;;5087195;28;20392;-73
2022/07/14 01:42:22;;;;;;;20.63;5.55;;;;;;;;;;5070007;28;20041;-72
2022/07/14 01:44:48;;;;;;;20.92;5.15;;;;;;;;;;5066256;28;20044;-73
2022/07/14 01:47:14;;;;;;;16.83;5.32;;;;;;;;;;5070508;28;20071;-72
2022/07/14 01:49:40;;;;;;;15.55;5.07;;;;;;;;;;5076113;28;20044;-72
2022/07/14 01:52:06;;;;;;;;;;;;;;;;;;5072038;28;20041;-73
2022/07/14 01:54:33;;;;;;;15.85;5.00;;;;;;;;;;5088438;28;20341;-73
2022/07/14 01:56:59;;;;;;;18.00;4.80;;;;;;;;;;5079825;22;20057;-72
2022/07/14 01:59:25;;;;;;;;;;;;;;;;;;5051245;28;20059;-71
2022/07/14 02:01:51;;;;;;;16.67;4.93;;;;;;;;;;5050518;28;19921;-69
2022/07/14 02:04:20;;;;;;;16.73;4.63;;;;;;;;;;5051380;28;20546;-69
2022/07/14 02:06:50;;;;;;;19.63;5.10;;;;;;;;;;5046204;28;20048;-73
2022/07/14 02:09:16;;;;;;;19.05;5.13;;;;;;;;;;5050526;28;20072;-70
2022/07/14 02:14:28;;;;;;;19.63;4.82;;;;;;;;;;5051246;28;20045;-70
2022/07/14 02:16:55;;;;;;;19.70;5.00;;;;;;;;;;5050852;28;20071;-70
2022/07/14 02:19:21;;;;;;;17.05;4.68;;;;;;;;;;5050210;28;20040;-70
2022/07/14 02:21:47;;;;;;;19.42;5.00;;;;;;;;;;5050548;28;20485;-73
2022/07/14 02:24:14;;;;;;;18.90;5.30;;;;;;;;;;5050332;28;20124;-69
2022/07/14 02:26:40;;;;;;;20.15;5.40;;;;;;;;;;5051710;28;20045;-71
2022/07/14 02:29:06;;;;;;;;;;;;;;;;;;5049443;28;20049;-70
2022/07/14 02:31:32;;;;;;;17.67;4.88;;;;;;;;;;5050907;28;19921;-70
2022/07/14 02:33:59;;;;;;;16.75;5.72;;;;;;;;;;5048016;28;20124;-70
2022/07/14 02:36:25;;;;;;;;;;;;;;;;;;5052166;28;20123;-70
2022/07/14 02:38:51;;;;;;;16.38;5.78;;;;;;;;;;5050124;28;20377;-70
2022/07/14 02:41:17;;;;;;;;;;;;;;;;;;5050420;28;20045;-70
2022/07/14 02:43:43;;;;;;;17.17;5.45;;;;;;;;;;5050705;28;20296;-69
2022/07/14 02:46:09;;;;;;;21.10;6.35;;;;;;;;;;5051456;28;20056;-70
2022/07/14 02:48:36;;;;;;;17.98;5.10;;;;;;;;;;5053957;28;20514;-70
2022/07/14 02:51:04;;;;;;;18.83;6.35;;;;;;;;;;5055450;28;20049;-70
2022/07/14 02:53:30;;;;;;;20.63;5.60;;;;;;;;;;5049413;28;20148;-70
2022/07/14 02:55:56;;;;;;;17.58;5.60;;;;;;;;;;5032735;28;20061;-70
2022/07/14 02:58:24;;;;;;;19.42;5.50;;;;;;;;;;5032054;28;20385;-70
2022/07/14 03:00:51;;;;;;;16.48;5.00;;;;;;;;;;5035519;28;20453;-70
2022/07/14 03:03:17;;;;;;;15.98;5.35;;;;;;;;;;5049620;28;20492;-70
2022/07/14 03:05:43;;;;;;;13.88;5.20;;;;;;;;;;5035623;28;20041;-70
2022/07/14 03:08:09;;;;;;;17.58;5.75;;;;;;;;;;5031812;28;20045;-70
2022/07/14 03:10:35;;;;;;;18.30;5.53;;;;;;;;;;5034673;28;20049;-69
2022/07/14 03:13:02;;;;;;;16.80;5.68;;;;;;;;;;5024547;28;20061;-70
2022/07/14 03:15:28;;;;;;;;;;;;;;;;;;5033852;28;20052;-69
2022/07/14 03:17:54;;;;;;;17.33;5.82;;;;;;;;;;5033281;28;19995;-73
2022/07/14 03:20:20;;;;;;;18.17;5.95;;;;;;;;;;5032902;28;20117;-69
2022/07/14 03:22:46;;;;;;;19.65;5.28;;;;;;;;;;5033806;28;20053;-69
2022/07/14 03:25:12;;;;;;;17.63;5.40;;;;;;;;;;5031266;28;20060;-70
2022/07/14 03:27:40;;;;;;;;;;;;;;;;;;5032513;28;20045;-71
2022/07/14 03:30:06;;;;;;;17.27;5.18;;;;;;;;;;5032164;28;20019;-70
2022/07/14 03:32:32;;;;;;;16.15;5.10;;;;;;;;;;5035813;28;20061;-71
2022/07/14 03:34:59;;;;;;;17.23;4.75;;;;;;;;;;5041515;28;20045;-70
2022/07/14 03:37:25;;;;;;;16.80;4.80;;;;;;;;;;5034123;28;20053;-69
2022/07/14 03:39:51;;;;;;;14.70;4.93;;;;;;;;;;5031242;28;20498;-70
2022/07/14 03:42:17;;;;;;;14.13;4.57;;;;;;;;;;5032425;28;20086;-69
2022/07/14 03:44:45;;;;;;;15.38;5.18;;;;;;;;;;5032079;28;20041;-70
2022/07/14 03:47:11;;;;;;;17.33;4.72;;;;;;;;;;5032287;28;20049;-69
2022/07/14 03:49:37;;;;;;;15.50;5.13;;;;;;;;;;5024416;28;20046;-70
2022/07/14 03:52:03;;;;;;;;;;;;;;;;;;5043198;28;20046;-70
2022/07/14 03:54:30;;;;;;;19.90;4.55;;;;;;;;;;5018228;28;19927;-69
2022/07/14 03:56:56;;;;;;;16.00;4.35;;;;;;;;;;5050413;28;20065;-69
2022/07/14 03:59:22;;;;;;;16.02;4.85;;;;;;;;;;5046758;28;20049;-70
2022/07/14 04:01:48;;;;;;;15.02;4.57;;;;;;;;;;5048614;28;20073;-71
2022/07/14 04:04:14;;;;;;;21.45;5.30;;;;;;;;;;5050479;28;20048;-70
2022/07/14 04:06:40;;;;;;;15.68;4.57;;;;;;;;;;5033865;28;20041;-70
2022/07/14 04:09:06;;;;;;;13.98;4.55;;;;;;;;;;5050368;28;21661;-70
2022/07/14 04:11:32;;;;;;;16.83;4.47;;;;;;;;;;5051157;28;20388;-70
2022/07/14 04:13:58;;;;;;;;;;;;;;;;;;5052788;28;20041;-70
2022/07/14 04:16:24;;;;;;;15.23;4.85;;;;;;;;;;5050046;28;19920;-70
2022/07/14 04:18:50;;;;;;;14.27;4.72;;;;;;;;;;5051183;28;20040;-69
2022/07/14 04:21:17;;;;;;;12.20;4.47;;;;;;;;;;5049622;28;20382;-70
2022/07/14 04:23:43;;;;;;;17.95;4.72;;;;;;;;;;5050849;28;20448;-70
2022/07/14 04:26:09;;;;;;;16.58;4.53;;;;;;;;;;5049992;28;20049;-70
2022/07/14 04:28:35;;;;;;;;;;;;;;;;;;5052534;28;20051;-70
2022/07/14 04:31:02;;;;;;;12.50;4.25;;;;;;;;;;5050151;28;19920;-70
2022/07/14 04:33:29;;;;;;;16.42;4.60;;;;;;;;;;5049078;28;20474;-70
2022/07/14 04:35:54;;;;;;;;;;;;;;;;;;5050589;28;20059;-71
2022/07/14 04:38:21;;;;;;;15.05;4.07;;;;;;;;;;5051036;28;19921;-70
2022/07/14 04:40:48;;;;;;;17.02;4.30;;;;;;;;;;5051092;28;20128;-70
2022/07/14 04:43:14;;;;;;;17.08;4.30;;;;;;;;;;5049413;28;20068;-70
2022/07/14 04:45:40;;;;;;;14.70;4.88;;;;;;;;;;5050897;28;20045;-70
2022/07/14 04:48:06;;;;;;;13.65;4.45;;;;;;;;;;5050590;28;20490;-74
2022/07/14 04:53:17;;;;;;;13.70;4.35;;;;;;;;;;5041239;28;20106;-70
2022/07/14 04:55:43;;;;;;;18.98;5.75;;;;;;;;;;5050424;28;20114;-70
2022/07/14 04:58:10;;;;;;;13.63;4.22;;;;;;;;;;5050054;28;20056;-71
2022/07/14 05:00:36;;;;;;;16.15;5.00;;;;;;;;;;5044278;28;20056;-70
2022/07/14 05:03:03;;;;;;;;;;;;;;;;;;5048931;28;20492;-70
2022/07/14 05:05:29;;;;;;;13.32;5.10;;;;;;;;;;5046969;28;20384;-70
2022/07/14 05:07:55;;;;;;;17.17;4.82;;;;;;;;;;5050739;28;20119;-70
2022/07/14 05:10:21;;;;;;;15.50;4.80;;;;;;;;;;5034882;28;20068;-70
2022/07/14 05:12:47;;;;;;;;;;;;;;;;;;5048894;28;20037;-69
2022/07/14 05:15:13;;;;;;;15.05;4.72;;;;;;;;;;5043483;28;19981;-73
2022/07/14 05:17:39;;;;;;;18.23;4.85;;;;;;;;;;5051594;28;20045;-70
2022/07/14 05:20:06;;;;;;;17.55;4.88;;;;;;;;;;5051132;28;20080;-70
2022/07/14 05:22:36;;;;;;;18.52;4.97;;;;;;;;;;5050311;28;20174;-70
2022/07/14 05:25:05;;;;;;;16.90;4.85;;;;;;;;;;5045568;28;20049;-69
2022/07/14 05:27:31;;;;;;;16.88;5.25;;;;;;;;;;5049479;28;20728;-69
2022/07/14 05:29:57;;;;;;;14.07;4.60;;;;;;;;;;5043849;28;20044;-74
2022/07/14 05:32:23;;;;;;;16.50;4.35;;;;;;;;;;5043672;28;20440;-70
2022/07/14 05:34:49;;;;;;;15.93;4.72;;;;;;;;;;5046318;28;20456;-70
2022/07/14 05:37:16;;;;;;;14.85;4.47;;;;;;;;;;5020553;28;20042;-71
2022/07/14 05:39:42;;;;;;;14.57;4.13;;;;;;;;;;5023586;28;20076;-71
2022/07/14 05:42:08;;;;;;;11.85;4.00;;;;;;;;;;5048884;28;20041;-71
2022/07/14 05:44:35;;;;;;;11.27;3.65;;;;;;;;;;5048769;28;20425;-71
2022/07/14 05:47:01;;;;;;;14.00;4.05;;;;;;;;;;5043513;28;20396;-70
2022/07/14 05:49:27;;;;;;;16.80;4.03;;;;;;;;;;5043638;28;20550;-70
2022/07/14 05:51:53;;;;;;;13.18;3.55;;;;;;;;;;5046012;28;20496;-70
2022/07/14 05:54:19;;;;;;;15.57;3.65;;;;;;;;;;5047185;28;20404;-71
2022/07/14 05:56:45;;;;;;;13.65;3.72;;;;;;;;;;5048319;28;20130;-71
2022/07/14 05:59:11;;;;;;;13.13;3.90;;;;;;;;;;5037626;28;20603;-73
2022/07/14 06:01:37;;;;;;;12.63;3.10;;;;;;;;;;5041542;28;20720;-70
2022/07/14 06:04:03;;;;;;;14.05;2.88;;;;;;;;;;5048083;28;20338;-70
2022/07/14 06:06:29;;;;;;;14.02;3.60;;;;;;;;;;5047530;28;20044;-70
2022/07/14 06:08:56;;;;;;;16.65;3.30;;;;;;;;;;5048880;28;20045;-73
2022/07/14 06:11:22;;;;;;;11.32;2.80;;;;;;;;;;5046773;28;20075;-71
2022/07/14 06:13:48;;;;;;;14.13;2.55;;;;;;;;;;5037661;28;20049;-70
2022/07/14 06:16:14;;;;;;;16.05;3.53;;;;;;;;;;5043934;28;20052;-72
2022/07/14 06:18:40;;;;;;;9.98;2.50;;;;;;;;;;5042100;28;20041;-70
2022/07/14 06:21:09;;;;;;;11.60;2.63;;;;;;;;;;5045393;28;20049;-68
2022/07/14 06:23:37;;;;;;;10.73;2.20;;;;;;;;;;5047784;28;20131;-72
2022/07/14 06:26:10;;;;;;;11.35;2.67;;;;;;;;;;5049112;28;20349;-71
2022/07/14 06:28:36;;;;;;;10.73;2.58;;;;;;;;;;5049144;28;20072;-69
2022/07/14 06:31:03;;;;;;;11.73;2.70;;;;;;;;;;5049971;28;20040;-70
2022/07/14 06:33:29;;;;;;;11.93;2.45;;;;;;;;;;5049401;28;20051;-69
2022/07/14 06:35:55;;;;;;;8.27;2.10;;;;;;;;;;5036876;28;20103;-72
2022/07/14 06:38:21;;;;;;;15.48;2.80;;;;;;;;;;5047604;28;20478;-76
2022/07/14 06:40:47;;;;;;;12.73;2.30;;;;;;;;;;5049648;28;20049;-71
2022/07/14 06:43:13;;;;;;;11.25;2.63;;;;;;;;;;5049453;28;20040;-70
2022/07/14 06:45:39;;;;;;;11.60;2.72;;;;;;;;;;5048412;28;20040;-71
2022/07/14 06:48:05;;;;;;;;;;;;;;;;;;5048314;28;20493;-70
2022/07/14 06:50:32;;;;;;;10.90;2.53;;;;;;;;;;5048162;28;19961;-68
2022/07/14 06:52:58;;;;;;;10.68;2.20;;;;;;;;;;5052824;28;20036;-71
2022/07/14 06:55:24;;;;;;;10.52;2.15;;;;;;;;;;5061210;28;20079;-71
2022/07/14 06:57:50;;;;;;;13.93;2.47;;;;;;;;;;5049235;28;20063;-70
2022/07/14 07:00:18;;;;;;;11.98;2.17;;;;;;;;;;5049872;28;20052;-67
2022/07/14 07:02:44;;;;;;;7.93;1.80;;;;;;;;;;5049024;28;20133;-70
2022/07/14 07:07:59;;;;;;;7.63;2.10;;;;;;;;;;5049523;28;20085;-71
2022/07/14 07:10:25;;;;;;;13.57;2.40;;;;;;;;;;5031902;28;20045;-75
2022/07/14 07:12:52;;;;;;;8.50;2.45;;;;;;;;;;5050316;28;20041;-68
2022/07/14 07:15:18;;;;;;;12.98;2.65;;;;;;;;;;5050181;28;20485;-70
2022/07/14 07:17:44;;;;;;;;;;;;;;;;;;5031151;28;20408;-71
2022/07/14 07:20:10;;;;;;;7.90;1.60;;;;;;;;;;5050015;28;19928;-69
2022/07/14 07:22:37;;;;;;;9.20;1.77;;;;;;;;;;5048448;28;20049;-70
2022/07/14 07:25:03;;;;;;;9.27;2.05;;;;;;;;;;5049855;28;20442;-70
2022/07/14 07:27:29;;;;;;;7.82;1.90;;;;;;;;;;5031893;28;20041;-70
2022/07/14 07:29:55;;;;;;;10.15;2.00;;;;;;;;;;5049933;28;20049;-71
2022/07/14 07:32:22;;;;;;;8.18;1.90;;;;;;;;;;5049812;28;20059;-70
2022/07/14 07:34:48;;;;;;;8.98;2.08;;;;;;;;;;5053064;28;20135;-68
2022/07/14 07:37:14;;;;;;;10.27;2.22;;;;;;;;;;5053025;28;20106;-71
2022/07/14 07:39:40;;;;;;;9.18;2.33;;;;;;;;;;5052840;28;20044;-69
2022/07/14 07:42:06;;;;;;;9.93;1.73;;;;;;;;;;5052503;28;20100;-70
2022/07/14 07:44:32;;;;;;;6.65;1.75;;;;;;;;;;5052519;28;20485;-70
2022/07/14 07:46:59;;;;;;;10.38;1.50;;;;;;;;;;5052343;28;20045;-69
2022/07/14 07:49:25;;;;;;;;;;;;;;;;;;5052718;28;20045;-70
2022/07/14 07:51:57;;;;;;;9.90;2.30;;;;;;;;;;5052545;28;19943;-70
2022/07/14 07:54:23;;;;;;;10.30;1.92;;;;;;;;;;5051952;28;20473;-70
2022/07/14 07:56:49;;;;;;;10.25;2.38;;;;;;;;;;5052767;28;20516;-67
2022/07/14 07:59:16;;;;;;;6.30;1.52;;;;;;;;;;5053498;28;20052;-66
2022/07/14 08:01:42;;;;;;;10.10;1.95;;;;;;;;;;5034928;28;20057;-67
2022/07/14 08:04:08;;;;;;;7.20;1.52;;;;;;;;;;5051749;28;20504;-70
2022/07/14 08:06:35;;;;;;;;;;;;;;;;;;5051856;28;20053;-69
2022/07/14 08:09:01;;;;;;;6.07;1.63;;;;;;;;;;5052947;28;19927;-68
2022/07/14 08:11:28;;;;;;;8.45;1.73;;;;;;;;;;5050906;28;20052;-69
2022/07/14 08:13:54;;;;;;;6.05;1.70;;;;;;;;;;5034360;28;20465;-69
2022/07/14 08:16:20;;;;;;;8.07;2.22;;;;;;;;;;5052684;28;20049;-69
2022/07/14 08:18:46;;;;;;;6.53;1.60;;;;;;;;;;5052193;28;20102;-69
2022/07/14 08:21:13;;;;;;;8.80;2.00;;;;;;;;;;5033862;28;20102;-70
2022/07/14 08:23:39;;;;;;;7.60;1.70;;;;;;;;;;5051975;28;20473;-68
2022/07/14 08:26:05;;;;;;;7.40;1.80;;;;;;;;;;5052574;28;20525;-70
2022/07/14 08:28:31;;;;;;;;;;;;;;;;;;5054137;28;20053;-68
2022/07/14 08:30:57;;;;;;;5.93;1.98;;;;;;;;;;5054404;28;20359;-70
2022/07/14 08:33:23;;;;;;;6.15;1.67;;;;;;;;;;5054277;28;20566;-69
2022/07/14 08:35:49;;;;;;;9.90;2.05;;;;;;;;;;5053764;28;20382;-69
2022/07/14 08:38:15;;;;;;;11.35;1.92;;;;;;;;;;5052826;28;20367;-70
2022/07/14 08:40:41;;;;;;;;;;;;;;;;;;5052461;28;20045;-66
2022/07/14 08:43:08;;;;;;;10.40;2.00;;;;;;;;;;5050996;28;19920;-69
2022/07/14 08:45:41;;;;;;;6.57;2.00;;;;;;;;;;5050800;28;20461;-69
2022/07/14 08:48:08;;;;;;;7.13;2.00;;;;;;;;;;5033390;28;20057;-67
2022/07/14 08:50:34;;;;;;;9.00;2.40;;;;;;;;;;5051899;28;20048;-68
2022/07/14 08:53:03;;;;;;;;;;;;;;;;;;5049492;28;20037;-69
2022/07/14 08:55:30;;;;;;;7.40;1.80;;;;;;;;;;5051975;28;19974;-70
2022/07/14 08:57:56;;;;;;;7.97;2.10;;;;;;;;;;5051627;28;20497;-70
2022/07/14 09:00:22;;;;;;;7.90;2.10;;;;;;;;;;5051947;28;20381;-70
2022/07/14 09:02:48;;;;;;;;;;;;;;;;;;5050212;28;20492;-72
2022/07/14 09:05:15;;;;;;;9.25;1.83;;;;;;;;;;5049844;28;19921;-70
2022/07/14 09:07:41;;;;;;;10.48;1.70;;;;;;;;;;5051196;28;20045;-67
2022/07/14 09:10:09;;;;;;;8.30;1.98;;;;;;;;;;5051547;28;20134;-69
2022/07/14 09:12:36;;;;;;;6.05;1.60;;;;;;;;;;5051415;28;20099;-70
2022/07/14 09:17:52;;;;;;;11.82;2.15;;;;;;;;;;5050798;28;20060;-66
2022/07/14 09:20:18;;;;;;;8.70;2.20;;;;;;;;;;5051602;28;20194;-69
2022/07/14 09:22:44;;;;;;;;;;;;;;;;;;5051257;28;20049;-70
2022/07/14 09:25:17;;;;;;;6.28;1.73;;;;;;;;;;5049524;28;20022;-69
2022/07/14 09:27:45;;;;;;;6.50;1.75;;;;;;;;;;5050636;28;20561;-69
2022/07/14 09:30:12;;;;;;;8.45;1.60;;;;;;;;;;5051316;28;20128;-67
2022/07/14 09:32:57;;;;;;;6.07;1.63;;;;;;;;;;5050642;28;20542;-71
2022/07/14 09:35:25;;;;;;;8.77;1.70;;;;;;;;;;5051000;28;20051;-68
2022/07/14 09:37:51;;;;;;;5.82;1.65;;;;;;;;;;5050702;28;20049;-68
2022/07/14 09:40:25;;;;;;;5.88;1.67;;;;;;;;;;5050931;28;20066;-69
2022/07/14 09:42:54;;;;;;;6.95;1.80;;;;;;;;;;5048164;28;20045;-70
2022/07/14 09:45:25;;;;;;;6.90;1.60;;;;;;;;;;5051054;28;20053;-68
2022/07/14 09:48:00;;;;;;;6.35;1.98;;;;;;;;;;5050381;28;20461;-69
2022/07/14 09:50:32;;;;;;;7.80;1.85;;;;;;;;;;5051090;28;20422;-68
2022/07/14 09:52:59;;;;;;;9.65;1.70;;;;;;;;;;5031897;28;20475;-67
2022/07/14 09:55:25;;;;;;;;;;;;;;;;;;5050387;28;20401;-71
2022/07/14 09:57:52;;;;;;;6.25;1.50;;;;;;;;;;5050517;28;19921;-70
2022/07/14 10:00:19;;;;;;;7.80;1.80;;;;;;;;;;5033095;28;20101;-68
2022/07/14 10:02:46;;;;;;;7.22;1.75;;;;;;;;;;5031805;28;20443;-70
2022/07/14 10:05:14;;;;;;;5.00;1.70;;;;;;;;;;5049499;28;20060;-68
2022/07/14 10:07:41;;;;;;;9.48;1.60;;;;;;;;;;5050732;28;20056;-69
2022/07/14 10:10:15;;;;;;;7.82;1.80;;;;;;;;;;5050660;28;20052;-67
2022/07/14 10:12:42;;;;;;;7.43;2.05;;;;;;;;;;5033508;28;20064;-68
2022/07/14 10:15:10;;;;;;;9.30;1.80;;;;;;;;;;5049859;28;20138;-68
2022/07/14 10:17:37;;;;;;;8.57;1.80;;;;;;;;;;5050889;28;20053;-69
2022/07/14 10:20:07;;;;;;;7.18;1.92;;;;;;;;;;5032507;28;20052;-69
2022/07/14 10:22:34;;;;;;;7.15;1.70;;;;;;;;;;5050962;28;20173;-69
2022/07/14 10:25:02;;;;;;;10.48;1.83;;;;;;;;;;5048555;28;20076;-67
2022/07/14 10:27:29;;;;;;;5.63;1.60;;;;;;;;;;5050683;28;20080;-67
2022/07/14 10:29:58;;;;;;;6.13;1.70;;;;;;;;;;5050173;28;20072;-69
2022/07/14 10:32:30;;;;;;;7.32;2.05;;;;;;;;;;5048672;28;20124;-69
2022/07/14 10:35:03;;;;;;;6.97;1.58;;;;;;;;;;5050015;28;20147;-66
2022/07/14 10:37:41;;;;;;;7.10;1.70;;;;;;;;;;5050662;28;20524;-70
2022/07/14 10:40:13;;;;;;;7.13;1.90;;;;;;;;;;5050825;28;20096;-67
2022/07/14 10:42:39;;;;;;;6.88;1.98;;;;;;;;;;5049582;28;20076;-69
2022/07/14 10:45:05;;;;;;;8.00;1.80;;;;;;;;;;5050710;28;20106;-73
2022/07/14 10:47:51;;;;;;;6.85;1.90;;;;;;;;;;5051099;28;20106;-69
2022/07/14 10:50:20;;;;;;;4.38;1.60;;;;;;;;;;5050952;28;20084;-68
2022/07/14 10:52:55;;;;;;;6.97;1.88;;;;;;;;;;5032198;28;20512;-71
2022/07/14 10:55:27;;;;;;;7.00;1.80;;;;;;;;;;5030592;28;20049;-68
2022/07/14 10:58:00;;;;;;;9.95;1.95;;;;;;;;;;5030500;28;20092;-71
2022/07/14 11:00:47;;;;;;;6.72;1.50;;;;;;;;;;5031175;28;20096;-71
2022/07/14 11:03:25;;;;;;;7.72;1.75;;;;;;;;;;5030877;28;20068;-72
2022/07/14 11:06:01;;;;;;;7.45;1.83;;;;;;;;;;5049810;28;20508;-73
2022/07/14 11:08:27;;;;;;;7.40;2.00;;;;;;;;;;5053781;28;20045;-72
2022/07/14 11:10:54;;;;;;;4.78;1.40;;;;;;;;;;5054539;28;20045;-73
2022/07/14 11:13:20;;;;;;;9.77;1.90;;;;;;;;;;5020608;28;20056;-67
2022/07/14 11:15:50;;;;;;;8.27;1.85;;;;;;;;;;5053115;28;20056;-70
2022/07/14 11:18:24;;;;;;;6.75;1.65;;;;;;;;;;5036618;28;20056;-71
2022/07/14 11:20:53;;;;;;;8.20;1.90;;;;;;;;;;5036875;28;20453;-69
2022/07/14 11:23:24;;;;;;;5.50;1.55;;;;;;;;;;5054592;28;20052;-72
2022/07/14 11:25:50;;;;;;;7.80;1.67;;;;;;;;;;5052959;28;20041;-71
2022/07/14 11:28:32;;;;;;;8.00;2.13;;;;;;;;;;5052036;28;20053;-70
2022/07/14 11:31:13;;;;;;;6.80;1.55;;;;;;;;;;5053713;28;20127;-71
2022/07/14 11:36:17;;;;;;;6.53;1.80;;;;;;;;;;5053852;28;20504;-69
2022/07/14 11:36:26;;;;;;;7.60;1.70;;;;;;;;;;5054283;28;20107;-68
2022/07/14 11:38:52;;;;;;;;;;;;;;;;;;5053772;28;20409;-66
2022/07/14 11:41:38;;;;;;;8.80;2.05;;;;;;;;;;5053801;28;20062;-67
2022/07/14 11:44:04;;;;;;;6.40;1.77;;;;;;;;;;5035838;28;20051;-68
2022/07/14 11:46:30;;;;;;;;;;;;;;;;;;5054519;28;20044;-67
2022/07/14 11:48:56;;;;;;;8.25;1.88;;;;;;;;;;5053160;28;19948;-71
2022/07/14 11:51:24;;;;;;;6.93;1.75;;;;;;;;;;5054219;28;20056;-70
2022/07/14 11:53:55;;;;;;;7.03;1.55;;;;;;;;;;5056055;28;20108;-71
2022/07/14 11:56:23;;;;;;;8.80;1.80;;;;;;;;;;5053062;28;20061;-69
2022/07/14 11:58:50;;;;;;;8.25;1.90;;;;;;;;;;5052673;28;20060;-70
2022/07/14 12:01:16;;;;;;;11.68;1.90;;;;;;;;;;5033969;28;20481;-71
2022/07/14 12:03:42;;;;;;;;;;;;;;;;;;5035831;28;20444;-72
2022/07/14 12:06:09;;;;;;;9.10;1.98;;;;;;;;;;5053435;28;20039;-67
2022/07/14 12:08:39;;;;;;;9.07;1.88;;;;;;;;;;5053671;28;20110;-69
2022/07/14 12:11:10;;;;;;;7.35;1.50;;;;;;;;;;5052558;28;20092;-70
2022/07/14 12:13:51;;;;;;;9.88;1.88;;;;;;;;;;5053646;28;20080;-70
2022/07/14 12:16:18;;;;;;;10.63;1.90;;;;;;;;;;5052985;28;20060;-71
2022/07/14 12:18:44;;;;;;;9.02;1.88;;;;;;;;;;5052315;28;20049;-68
2022/07/14 12:21:10;;;;;;;7.93;1.90;;;;;;;;;;5051905;28;20041;-70
2022/07/14 12:23:50;;;;;;;9.90;2.13;;;;;;;;;;5053275;28;20041;-67
2022/07/14 12:26:18;;;;;;;6.38;1.60;;;;;;;;;;5051899;28;20105;-66
2022/07/14 12:28:48;;;;;;;7.88;2.08;;;;;;;;;;5052981;28;20366;-70
2022/07/14 12:31:15;;;;;;;7.70;1.80;;;;;;;;;;5051714;28;20135;-70
2022/07/14 12:33:42;;;;;;;10.75;1.90;;;;;;;;;;5051926;28;20045;-71
2022/07/14 12:36:14;;;;;;;8.60;2.17;;;;;;;;;;5050893;28;20072;-71
2022/07/14 12:38:41;;;;;;;6.22;1.73;;;;;;;;;;5047442;28;20056;-69
2022/07/14 12:41:07;;;;;;;5.88;1.75;;;;;;;;;;5051762;28;20417;-71
2022/07/14 12:43:38;;;;;;;8.35;1.70;;;;;;;;;;5052687;28;20474;-73
2022/07/14 12:46:07;;;;;;;5.63;1.65;;;;;;;;;;5034857;28;20055;-69
2022/07/14 12:48:35;;;;;;;9.10;1.90;;;;;;;;;;5051119;28;20083;-66
2022/07/14 12:51:20;;;;;;;8.65;1.70;;;;;;;;;;5035220;28;20052;-70
2022/07/14 12:53:57;;;;;;;8.65;1.90;;;;;;;;;;5051673;28;20107;-70
2022/07/14 12:56:23;;;;;;;10.18;2.08;;;;;;;;;;5052023;28;20489;-70
2022/07/14 12:58:49;;;;;;;;;;;;;;;;;;5052660;28;20048;-70
2022/07/14 13:01:15;;;;;;;4.13;1.48;;;;;;;;;;5051951;28;19971;-67
2022/07/14 13:03:41;;;;;;;;;;;;;;;;;;5036036;28;20080;-66
2022/07/14 13:06:07;;;;;;;5.60;1.80;;;;;;;;;;5047927;28;19955;-71
2022/07/14 13:08:38;;;;;;;6.43;1.80;;;;;;;;;;5044706;28;20121;-68
2022/07/14 13:11:07;;;;;;;11.77;1.90;;;;;;;;;;5032172;28;20048;-68
2022/07/14 13:13:38;;;;;;;7.93;1.92;;;;;;;;;;5046736;28;20095;-68
2022/07/14 13:16:14;;;;;;;7.57;1.92;;;;;;;;;;5047596;28;20492;-69
2022/07/14 13:18:59;;;;;;;6.32;2.05;;;;;;;;;;5032115;28;20095;-68
2022/07/14 13:21:44;;;;;;;9.70;2.00;;;;;;;;;;5050890;28;20076;-70
2022/07/14 13:24:14;;;;;;;9.00;1.80;;;;;;;;;;5051894;28;20062;-70
2022/07/14 13:26:40;;;;;;;8.43;1.70;;;;;;;;;;5050578;28;20040;-70
2022/07/14 13:29:07;;;;;;;8.93;2.10;;;;;;;;;;5050113;28;20531;-70
2022/07/14 13:31:33;;;;;;;6.72;1.80;;;;;;;;;;5031626;28;20063;-69
2022/07/14 13:34:01;;;;;;;9.43;2.25;;;;;;;;;;5032878;28;20059;-70
2022/07/14 13:36:28;;;;;;;7.38;1.77;;;;;;;;;;5032461;28;20068;-67
2022/07/14 13:38:54;;;;;;;8.77;2.17;;;;;;;;;;5032630;28;20177;-70
2022/07/14 13:41:20;;;;;;;6.75;1.80;;;;;;;;;;5050164;28;20099;-68
2022/07/14 13:43:48;;;;;;;7.05;1.83;;;;;;;;;;5032359;28;20037;-66
2022/07/14 13:46:14;;;;;;;8.82;1.77;;;;;;;;;;5043315;28;20072;-68
2022/07/14 13:48:41;;;;;;;7.85;1.70;;;;;;;;;;5047607;28;20041;-67
2022/07/14 13:53:52;;;;;;;12.57;1.88;;;;;;;;;;5047785;28;20568;-66
2022/07/14 13:56:18;;;;;;;;;;;;;;;;;;5050094;28;20144;-67
2022/07/14 13:58:44;;;;;;;6.00;1.80;;;;;;;;;;5050388;28;19999;-68
2022/07/14 14:01:10;;;;;;;10.98;1.77;;;;;;;;;;5049072;28;20051;-65
2022/07/14 14:03:37;;;;;;;;;;;;;;;;;;5032534;28;20369;-68
2022/07/14 14:06:10;;;;;;;11.73;2.83;;;;;;;;;;5041543;28;20331;-70
2022/07/14 14:08:37;;;;;;;7.00;1.80;;;;;;;;;;5048112;28;20900;-66
2022/07/14 14:11:03;;;;;;;8.60;2.05;;;;;;;;;;5049731;28;20045;-70
2022/07/14 14:13:30;;;;;;;6.20;1.70;;;;;;;;;;5035093;28;20122;-68
2022/07/14 14:15:57;;;;;;;13.20;2.13;;;;;;;;;;5030448;28;20053;-68
2022/07/14 14:18:23;;;;;;;12.25;2.22;;;;;;;;;;5045559;28;20531;-67
2022/07/14 14:20:49;;;;;;;9.82;1.77;;;;;;;;;;5030779;28;20046;-67
2022/07/14 14:23:15;;;;;;;;;;;;;;;;;;5043738;28;20037;-68
2022/07/14 14:25:41;;;;;;;7.35;1.90;;;;;;;;;;5048945;28;19936;-69
2022/07/14 14:28:07;;;;;;;;;;;;;;;;;;5047327;28;20060;-67
2022/07/14 14:30:34;;;;;;;9.45;2.05;;;;;;;;;;5045051;28;19921;-68
2022/07/14 14:33:00;;;;;;;8.40;1.60;;;;;;;;;;5046911;28;20049;-67
2022/07/14 14:35:26;;;;;;;;;;;;;;;;;;5047464;28;20045;-66
2022/07/14 14:37:52;;;;;;;8.05;1.73;;;;;;;;;;5045730;28;19921;-70
2022/07/14 14:40:19;;;;;;;9.18;2.03;;;;;;;;;;5049929;28;20123;-67
2022/07/14 14:42:45;;;;;;;6.68;2.05;;;;;;;;;;5051550;28;20101;-70
2022/07/14 14:45:12;;;;;;;14.00;1.77;;;;;;;;;;5053958;28;20045;-67
2022/07/14 14:47:38;;;;;;;7.10;1.70;;;;;;;;;;5036264;28;20064;-68
2022/07/14 14:50:05;;;;;;;6.70;1.50;;;;;;;;;;5053638;28;20055;-70
2022/07/14 14:52:31;;;;;;;6.18;1.70;;;;;;;;;;5052499;28;20119;-67
2022/07/14 14:54:57;;;;;;;;;;;;;;;;;;5054533;28;20522;-65
2022/07/14 14:57:23;;;;;;;7.75;1.60;;;;;;;;;;5052548;28;19964;-67
2022/07/14 14:59:49;;;;;;;;;;;;;;;;;;5053236;28;20072;-67
2022/07/14 15:02:18;;;;;;;11.05;1.85;;;;;;;;;;5048727;28;20006;-68